Tiempo atmosférico en la estación meteorológica de Alcalá La Real, Jaén (915 m.)



Fecha
DESCASC
Temp. máxima en grados centígrados (hora)
DESCASC
Temp. mínima en grados centígrados (hora)
DESCASC
Temp. media en grados centígrados
DESCASC
Racha de viento máxima en m/sg (hora)
DESCASC
Velocidad máxima media en intervalos de 10 minutos(hora)
DESCASC
Precipitaciones diarias en mm
DESCASC
Precipitaciones de 00:00 a 06:00 en mm
DESCASC
Precipitaciones de 06:00 a 12:00 en mm
DESCASC
Precipitaciones de 12:00 a 18:00 en mm
DESCASC
Precipitaciones de 18:00 a 24:00 en mm
DESCASC
16-06-2019 28.1 (18:10) 12.9 (06:00) 20.5 6.94 (19:30) 4.17 (19:30) 0 0 0 0 0
15-06-2019 26 (17:20) 7.9 (06:50) 17 7.5 (18:40) 3.89 (19:00) 0 0 0 0 0
14-06-2019 22.1 (17:00) 13.1 (23:59) 17.6 7.5 (16:00) 3.89 (15:10) 0 0 0 0 0
13-06-2019 25.9 (16:40) 11.8 (00:00) 18.8 8.33 (21:30) 4.17 (19:10) 0 0 0 0 0
12-06-2019 -- (--) -- (--) -- -- (--) -- (--) -- -- -- 0 0
11-06-2019 -- (--) -- (--) -- -- (--) -- (--) -- -- -- 0 --
10-06-2019 -- (--) -- (--) -- -- (--) -- (--) -- 0 0 0 --
09-06-2019 -- (--) -- (--) -- -- (--) -- (--) -- -- 0 0 0
08-06-2019 -- (--) -- (--) -- -- (--) -- (--) -- -- -- 0 --
07-06-2019 -- (--) -- (--) -- -- (--) -- (--) -- -- -- 0 --
06-06-2019 -- (--) -- (--) -- -- (--) -- (--) -- -- -- 0 --
05-06-2019 -- (--) -- (--) -- -- (--) -- (--) -- -- -- 0 --
04-06-2019 -- (--) -- (--) -- -- (--) -- (--) -- 0 0 0 --
03-06-2019 32.3 (18:00) 15.1 (00:00) 23.7 6.94 (18:20) 3.61 (18:10) 0 0 0 0 0
02-06-2019 31 (17:20) 13.2 (00:00) 22.1 7.22 (15:00) 3.89 (17:10) 0 0 0 0 0
01-06-2019 31.4 (17:30) 12.6 (00:00) 22 11.67 (00:10) 5.83 (00:20) 0 0 0 0 0
31-05-2019 30.2 (16:30) 15 (00:00) 22.6 10.56 (23:59) 5.56 (23:59) 0 0 0 0 0
30-05-2019 29.7 (17:30) 12.7 (00:00) 21.2 10.83 (23:59) 5.28 (23:50) 0 0 0 0 0
29-05-2019 28 (15:50) 13.9 (00:00) 20.9 8.89 (16:50) 5 (16:50) 0 0 0 0 0
28-05-2019 30 (16:30) 14.8 (00:00) 22.4 8.33 (16:00) 4.17 (16:10) 0 0 0 0 0
27-05-2019 28.7 (17:30) 12.2 (00:00) 20.5 7.5 (15:50) 4.72 (15:50) 0 0 0 0 0
26-05-2019 25.2 (17:10) 10.8 (00:00) 18 8.61 (18:00) 4.72 (17:40) 0 0 0 0 0
25-05-2019 24.3 (16:10) 10.3 (00:00) 17.3 8.89 (15:00) 5 (18:00) 0 0 0 0 0
24-05-2019 24.7 (16:40) 13.8 (00:00) 19.3 8.33 (23:10) 3.89 (18:10) 0 0 0 0 0
23-05-2019 27.8 (16:50) 12 (00:00) 19.9 7.78 (16:40) 3.89 (16:40) 0 0 0 0 0
22-05-2019 26.5 (17:00) 10.6 (00:00) 18.6 10 (14:10) 3.06 (14:10) 0 0 0 0 0

Gráficas

Temp. máximas Temp. mínimas Temp. medias Precipitaciones Rachas de viento máximas Velocidades máximas media en intervalos de 10 minutos

Datos horarios

Fecha y hora oficial Temperatura (ºC) Velocidad del viento (km/h) Dirección del viento Racha (km/h) Dirección de racha Precipitación (mm) Presión (hPa) Tendencia (hPa) Humedad (%)
2019-06-20 23:00:00 18 -- -- 12 Norte 0 -- -- 54
2019-06-20 22:00:00 19.5 -- -- 17 Norte 0 -- -- 50
2019-06-20 21:00:00 22.2 -- -- 22 Norte 0 -- -- 43
2019-06-20 20:00:00 23.8 -- -- 28 Norte 0 -- -- 42
2019-06-20 19:00:00 24.7 -- -- 31 Norte 0 -- -- 42
2019-06-20 18:00:00 25.4 -- -- 32 Norte 0 -- -- 44
2019-06-20 17:00:00 25.4 -- -- 30 Norte 0 -- -- 46
2019-06-20 16:00:00 25.2 -- -- 26 Norte 0 -- -- 46
2019-06-20 15:00:00 25 -- -- 23 Norte 0 -- -- 40
2019-06-20 14:00:00 24.3 -- -- 20 Norte 0 -- -- 43
2019-06-20 13:00:00 23 -- -- 21 Norte 0 -- -- 51
2019-06-20 12:00:00 21.6 -- -- 16 Norte 0 -- -- 57
2019-06-20 11:00:00 19.3 -- -- 14 Norte 0 -- -- 65
2019-06-20 10:00:00 16.8 -- -- 10 Norte 0 -- -- 75
2019-06-20 09:00:00 14.6 -- -- 7 Norte 0 -- -- 83
2019-06-20 08:00:00 12.7 -- -- 9 Norte 0 -- -- 90
2019-06-20 07:00:00 12.5 -- -- 6 Norte 0 -- -- 89
2019-06-20 06:00:00 12.5 -- -- -- -- 0 -- -- 88
2019-06-20 05:00:00 13 -- -- 3 Norte 0 -- -- 88
2019-06-20 04:00:00 14.4 -- -- 10 Norte 0 -- -- 82
2019-06-20 03:00:00 15.4 -- -- 13 Norte 0 -- -- 80
2019-06-20 02:00:00 16.4 -- -- 17 Norte 0 -- -- 75
2019-06-20 01:00:00 17.4 -- -- 19 Norte 0 -- -- 66
2019-06-20 00:00:00 17.6 -- -- 7 Norte 0 -- -- 57
2019-06-19 23:00:00 19.1 -- -- 5 Norte 0 -- -- 52
2019-06-19 22:00:00 21.3 -- -- 18 Norte 0 -- -- 46
2019-06-19 21:00:00 24.2 -- -- 20 Norte 0 -- -- 38
2019-06-19 20:00:00 25.8 -- -- -- -- -- -- -- 37
2019-06-19 19:00:00 26.5 -- -- 24 Norte 0 -- -- 36
2019-06-19 18:00:00 26.6 -- -- 24 Norte 0 -- -- 40
2019-06-19 17:00:00 26.5 -- -- 22 Norte 0 -- -- 39
2019-06-19 16:00:00 26.1 -- -- 21 Norte 0 -- -- 34
2019-06-19 15:00:00 25.1 -- -- 20 Norte 0 -- -- 41
2019-06-19 14:00:00 23.4 -- -- 20 Norte 0 -- -- 44
2019-06-19 13:00:00 21.8 -- -- 19 Nordeste 0 -- -- 56
2019-06-19 12:00:00 19.6 -- -- 18 Nordeste 0 -- -- 64
2019-06-19 11:00:00 17.2 -- -- 18 Nordeste 0 -- -- 74
2019-06-19 10:00:00 15.3 -- -- 14 Nordeste 0 -- -- 81
2019-06-19 09:00:00 13.9 -- -- -- -- -- -- -- 89
2019-06-19 08:00:00 -- -- -- -- -- -- -- -- --
2019-06-19 07:00:00 -- -- -- -- -- -- -- -- --
2019-06-19 06:00:00 -- -- -- -- -- -- -- -- --
2019-06-19 05:00:00 -- -- -- -- -- -- -- -- --
2019-06-19 04:00:00 -- -- -- -- -- -- -- -- --
2019-06-19 03:00:00 -- -- -- -- -- -- -- -- --
2019-06-19 02:00:00 -- -- -- -- -- -- -- -- --
2019-06-19 01:00:00 -- -- -- -- -- -- -- -- --
2019-06-19 00:00:00 -- -- -- -- -- -- -- -- --
2019-06-18 23:00:00 -- -- -- -- -- -- -- -- --
2019-06-18 22:00:00 -- -- -- -- -- -- -- -- --
2019-06-18 21:00:00 23.2 -- -- 20 Nordeste 0 -- -- 39
2019-06-18 20:00:00 24.9 -- -- 30 Nordeste 0 -- -- 36
2019-06-18 19:00:00 26.8 -- -- 25 Este 0 -- -- 35
2019-06-18 18:00:00 27.6 -- -- 27 Nordeste 0 -- -- 34
2019-06-18 17:00:00 27.2 -- -- 26 Este 0 -- -- 37
2019-06-18 16:00:00 27.5 -- -- 23 Nordeste 0 -- -- 35
2019-06-18 15:00:00 26.7 -- -- 35 Nordeste 0 -- -- 35
2019-06-18 14:00:00 26.3 -- -- 21 Nordeste 0 -- -- 35
2019-06-18 13:00:00 25.3 -- -- 17 Nordeste 0 -- -- 33
2019-06-18 12:00:00 24.3 -- -- 17 Nordeste 0 -- -- 33
2019-06-18 11:00:00 23 -- -- 13 Nordeste 0 -- -- 38
2019-06-18 10:00:00 20.5 -- -- 17 Nordeste 0 -- -- 29
2019-06-18 09:00:00 -- -- -- -- -- -- -- -- --
2019-06-18 08:00:00 -- -- -- -- -- -- -- -- --
2019-06-18 07:00:00 -- -- -- -- -- -- -- -- --
2019-06-18 06:00:00 -- -- -- -- -- -- -- -- --
2019-06-18 05:00:00 -- -- -- -- -- -- -- -- --
2019-06-18 04:00:00 -- -- -- -- -- -- -- -- --
2019-06-18 03:00:00 -- -- -- -- -- -- -- -- --
2019-06-18 02:00:00 -- -- -- -- -- -- -- -- --
2019-06-18 01:00:00 18 -- -- 9 Norte 0 -- -- 57
2019-06-18 00:00:00 18.7 -- -- 9 Norte 0 -- -- 35
2019-06-17 23:00:00 20.3 -- -- 9 Norte 0 -- -- 32
2019-06-17 22:00:00 23.5 -- -- -- -- -- -- -- 29
2019-06-17 21:00:00 -- -- -- -- -- -- -- -- --
2019-06-17 20:00:00 29 -- -- 21 Nordeste 0 -- -- 24
2019-06-17 19:00:00 29.8 -- -- 28 Nordeste 0 -- -- 24
2019-06-17 18:00:00 29.4 -- -- 27 Nordeste 0 -- -- 25
2019-06-17 17:00:00 29.4 -- -- 23 Nordeste 0 -- -- 24
2019-06-17 16:00:00 29.3 -- -- 25 Nordeste 0 -- -- 23
2019-06-17 15:00:00 28.6 -- -- 21 Nordeste 0 -- -- 24
2019-06-17 14:00:00 27.6 -- -- 24 Nordeste 0 -- -- 28
2019-06-17 13:00:00 26.2 -- -- 22 Nordeste 0 -- -- 30
2019-06-17 12:00:00 24.6 -- -- 14 Nordeste 0 -- -- 34
2019-06-17 11:00:00 22.3 -- -- 15 Nordeste 0 -- -- 42
2019-06-17 10:00:00 17.9 -- -- 9 Nordeste 0 -- -- 53
2019-06-17 09:00:00 13.8 -- -- 3 Norte 0 -- -- 61
2019-06-17 08:00:00 12.4 -- -- 8 Norte 0 -- -- 65
2019-06-17 07:00:00 11.9 -- -- 9 Norte 0 -- -- 66
2019-06-17 06:00:00 13 -- -- 9 Nordeste 0 -- -- 64
2019-06-17 05:00:00 14 -- -- 8 Norte 0 -- -- 62
2019-06-17 04:00:00 14.2 -- -- 7 Norte 0 -- -- 60
2019-06-17 03:00:00 14.6 -- -- 3 Norte 0 -- -- 54
2019-06-17 02:00:00 15.4 -- -- 4 Norte 0 -- -- 49
2019-06-17 01:00:00 16.2 -- -- 6 Norte 0 -- -- 48
2019-06-17 00:00:00 17.5 -- -- 9 Norte 0 -- -- 37
2019-06-16 23:00:00 19.7 -- -- 7 Norte 0 -- -- 33
2019-06-16 22:00:00 21.4 -- -- 15 Nordeste 0 -- -- 29
2019-06-16 21:00:00 24.4 -- -- 22 Nordeste 0 -- -- 25
2019-06-16 20:00:00 25.7 -- -- 25 Nordeste 0 -- -- 25
2019-06-16 19:00:00 26.8 -- -- 22 Nordeste 0 -- -- 29
2019-06-16 18:00:00 27.9 -- -- 22 Nordeste 0 -- -- 26
2019-06-16 17:00:00 27.3 -- -- 24 Nordeste 0 -- -- 27
2019-06-16 16:00:00 26.9 -- -- 23 Nordeste 0 -- -- 27
2019-06-16 15:00:00 26.5 -- -- 18 Nordeste 0 -- -- 28
2019-06-16 14:00:00 26 -- -- 13 Nordeste 0 -- -- 26
2019-06-16 13:00:00 24.8 -- -- 15 Norte 0 -- -- 31
2019-06-16 12:00:00 24.6 -- -- 18 Nordeste 0 -- -- 32
2019-06-16 11:00:00 21.9 -- -- 20 Nordeste 0 -- -- 36
2019-06-16 10:00:00 20.1 -- -- 22 Nordeste 0 -- -- 37
2019-06-16 09:00:00 17 -- -- 12 Nordeste 0 -- -- 41
2019-06-16 08:00:00 14.8 -- -- 12 Nordeste 0 -- -- 42
2019-06-16 07:00:00 13.2 -- -- 10 Norte 0 -- -- 43
2019-06-16 06:00:00 12.9 -- -- 8 Norte 0 -- -- 45
2019-06-16 05:00:00 14.1 -- -- 13 Norte 0 -- -- 39
2019-06-16 04:00:00 14 -- -- 9 Nordeste 0 -- -- 40
2019-06-16 03:00:00 14.2 -- -- 6 Norte 0 -- -- 41
2019-06-16 02:00:00 15 -- -- 4 Norte 0 -- -- 40
2019-06-16 01:00:00 16 -- -- 4 Norte 0 -- -- 38
2019-06-16 00:00:00 17.1 -- -- 6 Norte 0 -- -- 36
2019-06-15 23:00:00 17.9 -- -- 9 Norte 0 -- -- 33
2019-06-15 22:00:00 20.4 -- -- 20 Nordeste 0 -- -- 29
2019-06-15 21:00:00 23.4 -- -- 18 Nordeste 0 -- -- 27
2019-06-15 20:00:00 25 -- -- 22 Nordeste 0 -- -- 27
2019-06-15 19:00:00 25.5 -- -- 27 Nordeste 0 -- -- 28
2019-06-15 18:00:00 25.9 -- -- 22 Nordeste 0 -- -- 26
2019-06-15 17:00:00 25.7 -- -- 26 Nordeste 0 -- -- 25
2019-06-15 16:00:00 25.1 -- -- 23 Nordeste 0 -- -- 28
2019-06-15 15:00:00 23.8 -- -- 22 Nordeste 0 -- -- 34
2019-06-15 14:00:00 22 -- -- 17 Nordeste 0 -- -- 37
2019-06-15 13:00:00 20.3 -- -- 18 Nordeste 0 -- -- 41
2019-06-15 12:00:00 18.4 -- -- 16 Nordeste 0 -- -- 49
2019-06-15 11:00:00 16.1 -- -- 13 Nordeste 0 -- -- 56
2019-06-15 10:00:00 13.2 -- -- 16 Nordeste 0 -- -- 64
2019-06-15 09:00:00 10.9 -- -- 11 Nordeste 0 -- -- 73
2019-06-15 08:00:00 8.2 -- -- 2 Norte 0 -- -- 84
2019-06-15 07:00:00 7.9 -- -- 0 Calma 0 -- -- 84
2019-06-15 06:00:00 8.3 -- -- 4 Norte 0 -- -- 83
2019-06-15 05:00:00 8.8 -- -- 5 Norte 0 -- -- 81
2019-06-15 04:00:00 10.1 -- -- 10 Norte 0 -- -- 75
2019-06-15 03:00:00 11.1 -- -- 13 Nordeste 0 -- -- 72
2019-06-15 02:00:00 11.5 -- -- 12 Nordeste 0 -- -- 68
2019-06-15 01:00:00 12.7 -- -- 15 Nordeste 0 -- -- 64
2019-06-15 00:00:00 13.1 -- -- 15 Norte 0 -- -- 59
2019-06-14 23:00:00 14.3 -- -- 15 Nordeste 0 -- -- 54
2019-06-14 22:00:00 15.2 -- -- 17 Nordeste 0 -- -- 49
2019-06-14 21:00:00 18.3 -- -- 21 Nordeste 0 -- -- 41
2019-06-14 20:00:00 19.7 -- -- 20 Nordeste 0 -- -- 39
2019-06-14 19:00:00 20.7 -- -- 22 Nordeste 0 -- -- 39
2019-06-14 18:00:00 21.5 -- -- 25 Nordeste 0 -- -- 39
2019-06-14 17:00:00 22.1 -- -- 26 Nordeste 0 -- -- 37
2019-06-14 16:00:00 21.7 -- -- 27 Este 0 -- -- 40
2019-06-14 15:00:00 21.6 -- -- 24 Nordeste 0 -- -- 43
2019-06-14 14:00:00 20.8 -- -- 24 Nordeste 0 -- -- 51
2019-06-14 13:00:00 20.2 -- -- 25 Este 0 -- -- 53
2019-06-14 12:00:00 19.7 -- -- 18 Nordeste 0 -- -- 54
2019-06-14 11:00:00 18.1 -- -- 14 Nordeste 0 -- -- 60
2019-06-14 10:00:00 15.9 -- -- 10 Norte 0 -- -- 71
2019-06-14 09:00:00 15.1 -- -- 13 Nordeste 0 -- -- 74
2019-06-14 08:00:00 15.1 -- -- 9 Nordeste 0 -- -- 76
2019-06-14 07:00:00 14.9 -- -- 8 Norte 0 -- -- 76
2019-06-14 06:00:00 14.7 -- -- 14 Nordeste 0 -- -- 78
2019-06-14 05:00:00 15.4 -- -- 12 Nordeste 0 -- -- 70
2019-06-14 04:00:00 16.3 -- -- 11 Nordeste 0 -- -- 62
2019-06-14 03:00:00 16.5 -- -- 15 Norte 0 -- -- 58
2019-06-14 02:00:00 16.5 -- -- 20 Nordeste 0 -- -- 58
2019-06-14 01:00:00 17.2 -- -- 23 Nordeste 0 -- -- 54
2019-06-14 00:00:00 18.5 -- -- 19 Nordeste 0 -- -- 55
2019-06-13 23:00:00 19.9 -- -- 24 Nordeste 0 -- -- 53
2019-06-13 22:00:00 20.5 -- -- 30 Este 0 -- -- 52
2019-06-13 21:00:00 22.2 -- -- 26 Este 0 -- -- 48
2019-06-13 20:00:00 23.9 -- -- 24 Nordeste 0 -- -- 44
2019-06-13 19:00:00 24.9 -- -- 27 Este 0 -- -- 44
2019-06-13 18:00:00 25.7 -- -- 28 Nordeste 0 -- -- 42
2019-06-13 17:00:00 25.2 -- -- 26 Este 0 -- -- 43
2019-06-13 16:00:00 25.4 -- -- 21 Nordeste 0 -- -- 42
2019-06-13 15:00:00 24.4 -- -- 22 Nordeste 0 -- -- 45
2019-06-13 14:00:00 23 -- -- 14 Nordeste 0 -- -- 50
2019-06-13 13:00:00 20.9 -- -- 18 Nordeste 0 -- -- 54
2019-06-13 12:00:00 20.6 -- -- 15 Nordeste 0 -- -- 54
2019-06-13 11:00:00 17.6 -- -- 8 Nordeste 0 -- -- 64
2019-06-13 10:00:00 15.8 -- -- 9 Norte 0 -- -- 71
2019-06-13 09:00:00 13.4 -- -- 9 Norte 0 -- -- 79
2019-06-13 08:00:00 12.2 -- -- 9 Nordeste 0 -- -- 82
2019-06-13 07:00:00 12.1 -- -- 12 Norte 0 -- -- 77
2019-06-13 06:00:00 12.4 -- -- 12 Nordeste 0 -- -- 75
2019-06-13 05:00:00 12.4 -- -- 6 Norte 0 -- -- 77
2019-06-13 04:00:00 12.7 -- -- 8 Norte 0 -- -- 73
2019-06-13 03:00:00 13.7 -- -- 13 Norte 0 -- -- 68
2019-06-13 02:00:00 14.9 -- -- 12 Nordeste 0 -- -- 61
2019-06-13 01:00:00 15.6 -- -- 8 Norte 0 -- -- 58
2019-06-13 00:00:00 16.5 -- -- 3 Norte 0 -- -- 60
2019-06-12 23:00:00 17.5 -- -- 4 Norte 0 -- -- 57
2019-06-12 22:00:00 19.7 -- -- 13 Norte 0 -- -- 50
2019-06-12 21:00:00 22.5 -- -- 21 Nordeste 0 -- -- 44
2019-06-12 20:00:00 24.7 -- -- 18 Nordeste 0 -- -- 39
2019-06-12 19:00:00 25 -- -- 21 Nordeste 0 -- -- 37
2019-06-12 18:00:00 25.5 -- -- 19 Nordeste 0 -- -- 35
2019-06-12 17:00:00 25.3 -- -- 20 Nordeste 0 -- -- 34
2019-06-12 16:00:00 24.6 -- -- 21 Nordeste 0 -- -- 35
2019-06-12 15:00:00 23.2 -- -- 15 Norte 0 -- -- 37
2019-06-12 14:00:00 21.8 -- -- 22 Nordeste 0 -- -- 40
2019-06-12 13:00:00 20.5 -- -- 14 Norte 0 -- -- 43
2019-06-12 12:00:00 21.3 -- -- 14 Nordeste 0 -- -- 44
2019-06-12 11:00:00 18.6 -- -- 16 Nordeste 0 -- -- 52
2019-06-12 10:00:00 16.3 -- -- 15 Nordeste 0 -- -- 60
2019-06-12 09:00:00 14.4 -- -- 12 Nordeste 0 -- -- 72
2019-06-12 08:00:00 12 -- -- 8 Norte 0 -- -- 78
2019-06-12 07:00:00 -- -- -- -- -- -- -- -- --
2019-06-12 06:00:00 -- -- -- -- -- -- -- -- --
2019-06-12 05:00:00 -- -- -- -- -- -- -- -- --
2019-06-12 04:00:00 -- -- -- -- -- -- -- -- --
2019-06-12 03:00:00 -- -- -- -- -- -- -- -- --
2019-06-12 02:00:00 -- -- -- -- -- -- -- -- --
2019-06-12 01:00:00 -- -- -- -- -- -- -- -- --
2019-06-12 00:00:00 -- -- -- -- -- -- -- -- --
2019-06-11 23:00:00 -- -- -- -- -- -- -- -- --
2019-06-11 22:00:00 -- -- -- -- -- -- -- -- --
2019-06-11 21:00:00 22.3 -- -- 23 Nordeste 0 -- -- 32
2019-06-11 20:00:00 22.8 -- -- 27 Nordeste 0 -- -- 36
2019-06-11 19:00:00 23.3 -- -- 32 Este 0 -- -- 36
2019-06-11 18:00:00 23.3 -- -- 33 Este 0 -- -- 35
2019-06-11 17:00:00 23.1 -- -- 31 Este 0 -- -- 35
2019-06-11 16:00:00 23.1 -- -- 29 Este 0 -- -- 35
2019-06-11 15:00:00 22.5 -- -- 30 Este 0 -- -- 34
2019-06-11 14:00:00 21.7 -- -- 28 Este 0 -- -- 30
2019-06-11 13:00:00 21.2 -- -- 27 Este 0 -- -- 34
2019-06-11 12:00:00 20.5 -- -- 23 Nordeste 0 -- -- 31
2019-06-11 11:00:00 19.2 -- -- 18 Nordeste 0 -- -- 36
2019-06-11 10:00:00 16.2 -- -- 12 Nordeste 0 -- -- 54
2019-06-11 09:00:00 13.6 -- -- -- -- -- -- -- 30
2019-06-11 08:00:00 -- -- -- -- -- -- -- -- --
2019-06-11 07:00:00 -- -- -- -- -- -- -- -- --
2019-06-11 06:00:00 -- -- -- -- -- -- -- -- --
2019-06-11 05:00:00 -- -- -- -- -- -- -- -- --
2019-06-11 04:00:00 -- -- -- -- -- -- -- -- --
2019-06-11 03:00:00 -- -- -- -- -- -- -- -- --
2019-06-11 02:00:00 -- -- -- -- -- -- -- -- --
2019-06-11 01:00:00 -- -- -- -- -- -- -- -- --
2019-06-11 00:00:00 -- -- -- -- -- -- -- -- --
2019-06-10 23:00:00 -- -- -- -- -- -- -- -- --
2019-06-10 22:00:00 -- -- -- -- -- -- -- -- --
2019-06-10 21:00:00 -- -- -- -- -- -- -- -- --
2019-06-10 20:00:00 22.9 14 Noroeste 28 Noroeste 0 -- -- 33
2019-06-10 19:00:00 23.6 15 Noroeste 27 Oeste 0 -- -- 28
2019-06-10 18:00:00 23.8 11 Noroeste 25 Noroeste 0 -- -- 23
2019-06-10 17:00:00 23.6 14 Noroeste 28 Noroeste 0 -- -- 27
2019-06-10 16:00:00 22.8 15 Noroeste 30 Oeste 0 -- -- 31
2019-06-10 15:00:00 22.8 12 Noroeste 29 Noroeste 0 -- -- 32
2019-06-10 14:00:00 21.5 13 Noroeste 26 Oeste 0 -- -- 35
2019-06-10 13:00:00 20.7 11 Noroeste 24 Noroeste 0 -- -- 38
2019-06-10 12:00:00 19.7 11 Noroeste 22 Oeste 0 -- -- 41
2019-06-10 11:00:00 18.3 10 Noroeste 19 Norte 0 -- -- 46
2019-06-10 10:00:00 16 8 Noroeste 16 Noroeste 0 -- -- 54
2019-06-10 09:00:00 13.4 5 Norte 9 Norte 0 -- -- 64
2019-06-10 08:00:00 10.8 2 Sudeste 9 Sudeste 0 -- -- 71
2019-06-10 07:00:00 10.3 3 Noroeste 7 Norte 0 -- -- 71
2019-06-10 06:00:00 10.8 4 Noroeste 9 Noroeste 0 -- -- 68
2019-06-10 05:00:00 11.1 3 Noroeste 9 Noroeste 0 -- -- 63
2019-06-10 04:00:00 12 3 Oeste 11 Noroeste 0 -- -- 60
2019-06-10 03:00:00 13 5 Noroeste 10 Norte 0 -- -- 57
2019-06-10 02:00:00 14 4 Oeste 12 Oeste 0 -- -- 51
2019-06-10 01:00:00 15.2 5 Noroeste 12 Sudoeste 0 -- -- 47
2019-06-10 00:00:00 15.8 0 Calma 14 Oeste 0 -- -- 43
2019-06-09 23:00:00 17.4 7 Oeste 17 Noroeste 0 -- -- 39
2019-06-09 22:00:00 18.9 6 Oeste 12 Oeste 0 -- -- 42
2019-06-09 21:00:00 21.5 8 Oeste 23 Oeste 0 -- -- 38
2019-06-09 20:00:00 22.6 14 Oeste 27 Noroeste 0 -- -- 33
2019-06-09 19:00:00 23.3 14 Noroeste 32 Noroeste 0 -- -- 36
2019-06-09 18:00:00 24.1 13 Noroeste 29 Oeste 0 -- -- 39
2019-06-09 17:00:00 23.9 17 Oeste 30 Noroeste 0 -- -- 41
2019-06-09 16:00:00 24.2 17 Noroeste 27 Noroeste 0 -- -- 45
2019-06-09 15:00:00 24.4 10 Noroeste 26 Sudoeste 0 -- -- 40
2019-06-09 14:00:00 23.1 12 Oeste 22 Oeste 0 -- -- 43
2019-06-09 13:00:00 21.8 8 Oeste 18 Noroeste 0 -- -- 47
2019-06-09 12:00:00 19.8 5 Noroeste 13 Norte 0 -- -- 51
2019-06-09 11:00:00 16.9 9 Noroeste 17 Noroeste 0 -- -- 56
2019-06-09 10:00:00 16.8 9 Noroeste 15 Noroeste 0 -- -- 56
2019-06-09 09:00:00 15.9 5 Noroeste 10 Noroeste 0 -- -- 60
2019-06-09 08:00:00 14.4 2 Norte 9 Noroeste 0 -- -- 74
2019-06-09 07:00:00 14.3 5 Noroeste 18 Norte 0 -- -- 80
2019-06-09 06:00:00 14.7 10 Noroeste -- -- -- -- -- 78
2019-06-09 05:00:00 15.5 8 Norte -- -- -- -- -- 73
2019-06-09 04:00:00 -- -- -- -- -- -- -- -- --
2019-06-09 03:00:00 -- -- -- -- -- -- -- -- --
2019-06-09 02:00:00 -- -- -- -- -- -- -- -- --
2019-06-09 01:00:00 -- -- -- -- -- -- -- -- --
2019-06-09 00:00:00 -- -- -- -- -- -- -- -- --
2019-06-08 23:00:00 -- -- -- -- -- -- -- -- --
2019-06-08 22:00:00 -- -- -- -- -- -- -- -- --
2019-06-08 21:00:00 22.3 8 Noroeste 23 Oeste 0 -- -- 43
2019-06-08 20:00:00 25.3 12 Oeste 21 Oeste 0 -- -- 36
2019-06-08 19:00:00 27.4 11 Oeste 23 Noroeste 0 -- -- 32
2019-06-08 18:00:00 27.8 7 Norte 22 Noroeste 0 -- -- 31
2019-06-08 17:00:00 28.4 13 Noroeste 22 Oeste 0 -- -- 29
2019-06-08 16:00:00 27.7 10 Noroeste 21 Oeste 0 -- -- 29
2019-06-08 15:00:00 27.6 10 Sudoeste 20 Sudoeste 0 -- -- 29
2019-06-08 14:00:00 26.8 6 Sudoeste 26 Sudeste 0 -- -- 30
2019-06-08 13:00:00 25.6 7 Sudeste 26 Sudeste 0 -- -- 32
2019-06-08 12:00:00 24.3 9 Sudeste 23 Sudeste 0 -- -- 36
2019-06-08 11:00:00 22.3 7 Sudeste 20 Este 0 -- -- 39
2019-06-08 10:00:00 18.6 4 Sur 14 Sur 0 -- -- 44
2019-06-08 09:00:00 -- -- -- -- -- -- -- -- --
2019-06-08 08:00:00 -- -- -- -- -- -- -- -- --
2019-06-08 07:00:00 -- -- -- -- -- -- -- -- --
2019-06-08 06:00:00 -- -- -- -- -- -- -- -- --
2019-06-08 05:00:00 -- -- -- -- -- -- -- -- --
2019-06-08 04:00:00 -- -- -- -- -- -- -- -- --
2019-06-08 03:00:00 -- -- -- -- -- -- -- -- --
2019-06-08 02:00:00 -- -- -- -- -- -- -- -- --
2019-06-08 01:00:00 -- -- -- -- -- -- -- -- --
2019-06-08 00:00:00 -- -- -- -- -- -- -- -- --
2019-06-07 23:00:00 -- -- -- -- -- -- -- -- --
2019-06-07 22:00:00 -- -- -- -- -- -- -- -- --
2019-06-07 21:00:00 20.9 -- -- 16 Nordeste 0 -- -- 32
2019-06-07 20:00:00 22.3 -- -- 20 Nordeste 0 -- -- 32
2019-06-07 19:00:00 23.2 -- -- 23 Nordeste 0 -- -- 33
2019-06-07 18:00:00 22.9 -- -- 23 Nordeste 0 -- -- 35
2019-06-07 17:00:00 22.8 -- -- 23 Nordeste 0 -- -- 31
2019-06-07 16:00:00 22 -- -- 22 Nordeste 0 -- -- 37
2019-06-07 15:00:00 20.8 -- -- 23 Nordeste 0 -- -- 48
2019-06-07 14:00:00 20 -- -- 21 Nordeste 0 -- -- 52
2019-06-07 13:00:00 18.5 -- -- 18 Nordeste 0 -- -- 59
2019-06-07 12:00:00 16.7 -- -- 17 Nordeste 0 -- -- 67
2019-06-07 11:00:00 15.5 -- -- 13 Nordeste 0 -- -- 70
2019-06-07 10:00:00 13.7 -- -- 55 Nordeste 0 -- -- 76
2019-06-07 09:00:00 12.6 -- -- 9 Norte 0 -- -- 79
2019-06-07 08:00:00 -- -- -- -- -- -- -- -- --
2019-06-07 07:00:00 -- -- -- -- -- -- -- -- --
2019-06-07 06:00:00 -- -- -- -- -- -- -- -- --
2019-06-07 05:00:00 -- -- -- -- -- -- -- -- --
2019-06-07 04:00:00 -- -- -- -- -- -- -- -- --
2019-06-07 03:00:00 -- -- -- -- -- -- -- -- --
2019-06-07 02:00:00 -- -- -- -- -- -- -- -- --
2019-06-07 01:00:00 -- -- -- -- -- -- -- -- --
2019-06-07 00:00:00 -- -- -- -- -- -- -- -- --
2019-06-06 23:00:00 -- -- -- -- -- -- -- -- --
2019-06-06 22:00:00 -- -- -- -- -- -- -- -- --
2019-06-06 21:00:00 20.8 9 Oeste 22 Oeste 0 -- -- 33
2019-06-06 20:00:00 22.9 14 Oeste 28 Noroeste 0 -- -- 30
2019-06-06 19:00:00 24.3 13 Oeste 23 Oeste 0 -- -- 27
2019-06-06 18:00:00 25.2 10 Oeste 25 Sudoeste 0 -- -- 25
2019-06-06 17:00:00 25.1 10 Oeste 24 Sudoeste 0 -- -- 27
2019-06-06 16:00:00 24.9 12 Oeste 23 Oeste 0 -- -- 26
2019-06-06 15:00:00 23.9 8 Oeste 22 Oeste 0 -- -- 25
2019-06-06 14:00:00 23 10 Sudoeste 24 Sudoeste 0 -- -- 24
2019-06-06 13:00:00 21.7 5 Sudeste 18 Este 0 -- -- 31
2019-06-06 12:00:00 19.4 7 Sudeste 21 Sudeste 0 -- -- 36
2019-06-06 11:00:00 17.6 5 Sudeste 14 Este 0 -- -- 39
2019-06-06 10:00:00 14 6 Sudeste 11 Este 0 -- -- 47
2019-06-06 09:00:00 11 4 Noroeste 8 Norte 0 -- -- 64
2019-06-06 08:00:00 8.2 0 Calma 0 Calma 0 -- -- 67
2019-06-06 07:00:00 8.1 0 Calma -- -- -- -- -- 63
2019-06-06 06:00:00 -- -- -- -- -- -- -- -- --
2019-06-06 05:00:00 9.3 2 Sudeste -- -- -- -- -- 57
2019-06-06 04:00:00 -- -- -- -- -- -- -- -- --
2019-06-06 03:00:00 -- -- -- -- -- -- -- -- --
2019-06-06 02:00:00 -- -- -- -- -- -- -- -- --
2019-06-06 01:00:00 -- -- -- -- -- -- -- -- --
2019-06-06 00:00:00 -- -- -- -- -- -- -- -- --
2019-06-05 23:00:00 -- -- -- -- -- -- -- -- --
2019-06-05 22:00:00 -- -- -- -- -- -- -- -- --
2019-06-05 21:00:00 17.7 10 Noroeste 19 Oeste 0 -- -- 37
2019-06-05 20:00:00 18.4 9 Oeste 22 Oeste 0 -- -- 37
2019-06-05 19:00:00 19.4 14 Noroeste 29 Oeste 0 -- -- 36
2019-06-05 18:00:00 19.4 12 Noroeste 32 Oeste 0 -- -- 36
2019-06-05 17:00:00 18.7 15 Noroeste 32 Noroeste 0 -- -- 39
2019-06-05 16:00:00 18.8 17 Noroeste 29 Oeste 0 -- -- 39
2019-06-05 15:00:00 18 15 Noroeste 31 Oeste 0 -- -- 40
2019-06-05 14:00:00 17.2 18 Noroeste 32 Oeste 0 -- -- 41
2019-06-05 13:00:00 16.1 13 Oeste 27 Noroeste 0 -- -- 44
2019-06-05 12:00:00 15.1 10 Noroeste 23 Noroeste 0 -- -- 43
2019-06-05 11:00:00 13.3 11 Noroeste 22 Noroeste 0 -- -- 52
2019-06-05 10:00:00 11.8 10 Noroeste 24 Oeste 0 -- -- 57
2019-06-05 09:00:00 11 10 Noroeste 20 Noroeste 0 -- -- 59
2019-06-05 08:00:00 10.9 13 Noroeste 28 Noroeste 0 -- -- 62
2019-06-05 07:00:00 12.3 12 Noroeste -- -- -- -- -- 68
2019-06-05 06:00:00 -- -- -- -- -- -- -- -- --
2019-06-05 05:00:00 -- -- -- -- -- -- -- -- --
2019-06-05 04:00:00 -- -- -- -- -- -- -- -- --
2019-06-05 03:00:00 -- -- -- -- -- -- -- -- --
2019-06-05 02:00:00 -- -- -- -- -- -- -- -- --
2019-06-05 01:00:00 -- -- -- -- -- -- -- -- --
2019-06-05 00:00:00 -- -- -- -- -- -- -- -- --
2019-06-04 23:00:00 -- -- -- -- -- -- -- -- --
2019-06-04 22:00:00 -- -- -- -- -- -- -- -- --
2019-06-04 21:00:00 24 12 Oeste 23 Noroeste 0 -- -- 43
2019-06-04 20:00:00 24.7 14 Noroeste 30 Noroeste 0 -- -- 40
2019-06-04 19:00:00 27.1 15 Oeste 31 Oeste 0 -- -- 34
2019-06-04 18:00:00 27.6 15 Oeste 32 Oeste 0 -- -- 32
2019-06-04 17:00:00 28.7 13 Oeste 30 Oeste 0 -- -- 28
2019-06-04 16:00:00 28.6 13 Oeste 28 Oeste 0 -- -- 25
2019-06-04 15:00:00 27.8 11 Oeste 29 Oeste 0 -- -- 24
2019-06-04 14:00:00 27.1 9 Oeste 23 Oeste 0 -- -- 26
2019-06-04 13:00:00 26.5 8 Oeste 23 Oeste 0 -- -- 27
2019-06-04 12:00:00 25.6 10 Oeste 21 Oeste 0 -- -- 27
2019-06-04 11:00:00 23.8 4 Sur 13 Sudoeste 0 -- -- 31
2019-06-04 10:00:00 20.8 4 Sur 10 Sudeste 0 -- -- 35
2019-06-04 09:00:00 18 5 Sudeste 11 Sudeste 0 -- -- 45
2019-06-04 08:00:00 15.1 6 Sudeste 10 Sudeste 0 -- -- 48
2019-06-04 07:00:00 14.4 5 Sudeste 8 Sudeste 0 -- -- 51
2019-06-04 06:00:00 14.8 2 Sudeste 6 Sudeste 0 -- -- 52
2019-06-04 05:00:00 15.3 0 Calma 4 Este 0 -- -- 51
2019-06-04 04:00:00 17.1 2 Sudeste 7 Sudeste 0 -- -- 45
2019-06-04 03:00:00 17.9 5 Sudeste 8 Sudeste 0 -- -- 40
2019-06-04 02:00:00 18.7 4 Sudeste -- -- -- -- -- 38
2019-06-04 01:00:00 20 4 Sudeste 8 Sudeste 0 -- -- 35
2019-06-04 00:00:00 20.4 5 Sudeste 9 Sudeste 0 -- -- 34
2019-06-03 23:00:00 21.7 3 Sudeste 5 Sudeste 0 -- -- 33
2019-06-03 22:00:00 24.1 0 Calma -- -- -- -- -- 28
2019-06-03 21:00:00 28.2 5 Oeste -- -- 0 -- -- 23
2019-06-03 20:00:00 30 11 Oeste 20 Oeste 0 -- -- 22
2019-06-03 19:00:00 31.2 13 Oeste 25 Sudoeste 0 -- -- 22
2019-06-03 18:00:00 32.3 6 Noroeste 21 Oeste 0 -- -- 21
2019-06-03 17:00:00 32.1 9 Oeste 46 Sudoeste 0 -- -- 21
2019-06-03 16:00:00 31.9 9 Oeste 23 Noroeste 0 -- -- 22
2019-06-03 15:00:00 31.2 10 Oeste 19 Noroeste 0 -- -- 23
2019-06-03 14:00:00 29.7 9 Noroeste 18 Noroeste 0 -- -- 23
2019-06-03 13:00:00 29.4 5 Norte 16 Noroeste 0 -- -- 23
2019-06-03 12:00:00 28.1 5 Norte 11 Nordeste 0 -- -- 22
2019-06-03 11:00:00 25.3 4 Sudeste 14 Sudeste 0 -- -- 31
2019-06-03 10:00:00 21.8 6 Sudeste 14 Sudeste 0 -- -- 37
2019-06-03 09:00:00 18 9 Sudeste 13 Sudeste 0 -- -- 45
2019-06-03 08:00:00 15.1 2 Sudeste 5 Sudeste 0 -- -- 51
2019-06-03 07:00:00 15.1 0 Calma 6 Sudeste 0 -- -- 46
2019-06-03 06:00:00 16.1 3 Nordeste -- -- -- -- -- 43
2019-06-03 05:00:00 16.2 0 Calma 7 Sudeste 0 -- -- 39
2019-06-03 04:00:00 18.3 6 Sudeste 13 Sudeste 0 -- -- 33
2019-06-03 03:00:00 18.7 5 Sudeste 12 Sudeste 0 -- -- 30
2019-06-03 02:00:00 19.2 5 Sudeste -- -- -- -- -- 30
2019-06-03 01:00:00 20 4 Este 17 Sudeste 0 -- -- 31
2019-06-03 00:00:00 20.4 5 Sudeste 10 Este 0 -- -- 37
2019-06-02 23:00:00 22 6 Sudeste 12 Sudeste 0 -- -- 34
2019-06-02 22:00:00 23.5 0 Calma -- -- -- -- -- 32
2019-06-02 21:00:00 27.9 9 Oeste 23 Oeste 0 -- -- 26
2019-06-02 20:00:00 30.4 10 Oeste 21 Noroeste 0 -- -- 24
2019-06-02 19:00:00 30.9 9 Oeste 21 Oeste 0 -- -- 23
2019-06-02 18:00:00 30.9 12 Noroeste 22 Oeste 0 -- -- 23
2019-06-02 17:00:00 30.6 13 Noroeste 24 Oeste 0 -- -- 24
2019-06-02 16:00:00 30.3 12 Noroeste 23 Noroeste 0 -- -- 25
2019-06-02 15:00:00 29.2 12 Oeste 26 Noroeste 0 -- -- 27
2019-06-02 14:00:00 28.6 10 Norte 23 Oeste 0 -- -- 28
2019-06-02 13:00:00 27 9 Norte 20 Norte 0 -- -- 28
2019-06-02 12:00:00 25.5 6 Noroeste 13 Noroeste 0 -- -- 31
2019-06-02 11:00:00 23.3 3 Norte 13 Este 0 -- -- 35
2019-06-02 10:00:00 19.4 4 Sudeste 14 Sudeste 0 -- -- 44
2019-06-02 09:00:00 16.4 5 Sudeste 13 Sudeste 0 -- -- 49
2019-06-02 08:00:00 13.3 0 Calma 15 Sudeste 0 -- -- 54
2019-06-02 07:00:00 13.2 2 Sudeste 6 Sur 0 -- -- 54
2019-06-02 06:00:00 14.1 3 Sur 9 Sudeste 0 -- -- 50
2019-06-02 05:00:00 15.3 3 Sur 10 Sur 0 -- -- 44
2019-06-02 04:00:00 16.2 3 Sur 9 Sur 0 -- -- 41
2019-06-02 03:00:00 17.4 -- -- -- -- 0 -- -- 39
2019-06-02 02:00:00 18.6 5 Sudeste 19 Sudeste 0 -- -- 34
2019-06-02 01:00:00 19.3 7 Sudeste 18 Este 0 -- -- 35
2019-06-02 00:00:00 19.7 5 Este 15 Sudeste 0 -- -- 41
2019-06-01 23:00:00 20.8 5 Sudeste 16 Este 0 -- -- 40
2019-06-01 22:00:00 23 6 Este 17 Sudeste 0 -- -- 37
2019-06-01 21:00:00 26.6 4 Sudeste 15 Oeste 0 -- -- 32
2019-06-01 20:00:00 28.8 8 Sudoeste 24 Sudeste 0 -- -- 28
2019-06-01 19:00:00 30.5 6 Sur 15 Sudoeste 0 -- -- 20
2019-06-01 18:00:00 30.8 6 Oeste 18 Sudeste 0 -- -- 19
2019-06-01 17:00:00 31.1 8 Oeste 18 Noroeste 0 -- -- 18
2019-06-01 16:00:00 31 7 Noroeste 19 Norte 0 -- -- 17
2019-06-01 15:00:00 30.3 8 Nordeste 19 Norte 0 -- -- 17
2019-06-01 14:00:00 28.4 4 Sudeste 25 Este 0 -- -- 22
2019-06-01 13:00:00 28.2 7 Este 20 Sudeste 0 -- -- 24
2019-06-01 12:00:00 26.5 7 Este 17 Este 0 -- -- 25
2019-06-01 11:00:00 24.9 7 Este 32 Este 0 -- -- 28
2019-06-01 10:00:00 21.2 4 Noroeste 13 Este 0 -- -- 37
2019-06-01 09:00:00 16.1 2 Oeste 6 Sudoeste 0 -- -- 54
2019-06-01 08:00:00 12.6 0 Calma 7 Sudeste 0 -- -- 55
2019-06-01 07:00:00 13.5 2 Nordeste 7 Este 0 -- -- 49
2019-06-01 06:00:00 14.2 3 Sur 6 Sudoeste 0 -- -- 45
2019-06-01 05:00:00 14.8 0 Calma 6 Sudeste 0 -- -- 42
2019-06-01 04:00:00 18 3 Este 24 Este 0 -- -- 28
2019-06-01 03:00:00 18.6 11 Este 26 Sudeste 0 -- -- 32
2019-06-01 02:00:00 19.9 12 Este 31 Este 0 -- -- 33
2019-06-01 01:00:00 20.8 17 Este 42 Este 0 -- -- 30
2019-06-01 00:00:00 21.2 20 Este 38 Este 0 -- -- 30
2019-05-31 23:00:00 21.3 12 Este 26 Este 0 -- -- 35
2019-05-31 22:00:00 22.5 3 Sudeste 18 Sudeste 0 -- -- 34
2019-05-31 21:00:00 26.3 7 Sudeste 19 Sudeste 0 -- -- 30
2019-05-31 20:00:00 29.3 10 Este 19 Este 0 -- -- 22
2019-05-31 19:00:00 29.9 9 Este 25 Sudeste 0 -- -- 20
2019-05-31 18:00:00 29.8 7 Sudeste 22 Este 0 -- -- 21
2019-05-31 17:00:00 30.1 6 Este 22 Nordeste 0 -- -- 21
2019-05-31 16:00:00 29.7 8 Este 27 Este 0 -- -- 22
2019-05-31 15:00:00 28.6 9 Este 28 Sudeste 0 -- -- 24
2019-05-31 14:00:00 27.1 12 Este 31 Este 0 -- -- 26
2019-05-31 13:00:00 26.2 12 Este 28 Este 0 -- -- 27
2019-05-31 12:00:00 24.9 12 Este 28 Este 0 -- -- 28
2019-05-31 11:00:00 23.4 10 Sudeste 26 Sudeste 0 -- -- 29
2019-05-31 10:00:00 20.8 12 Este 27 Este 0 -- -- 32
2019-05-31 09:00:00 18 9 Este 19 Este 0 -- -- 37
2019-05-31 08:00:00 15 4 Oeste 17 Sudoeste 0 -- -- 46
2019-05-31 07:00:00 17.1 7 Este 24 Este 0 -- -- 36
2019-05-31 06:00:00 17.1 12 Este 31 Nordeste 0 -- -- 37
2019-05-31 05:00:00 16.3 9 Este 22 Este 0 -- -- 39
2019-05-31 04:00:00 15.7 5 Este 20 Este 0 -- -- 40
2019-05-31 03:00:00 17.9 8 Sudeste 24 Este 0 -- -- 34
2019-05-31 02:00:00 18.4 13 Este 33 Este 0 -- -- 35
2019-05-31 01:00:00 19.7 17 Este 36 Este 0 -- -- 32
2019-05-31 00:00:00 20.2 18 Este 39 Nordeste 0 -- -- 38
2019-05-30 23:00:00 20.1 13 Este 26 Sudeste 0 -- -- 39
2019-05-30 22:00:00 21.7 10 Sudeste 22 Este 0 -- -- 41
2019-05-30 21:00:00 26 11 Este 23 Este 0 -- -- 27
2019-05-30 20:00:00 28.2 10 Este 23 Este 0 -- -- 23
2019-05-30 19:00:00 29.1 11 Este 26 Este 0 -- -- 22
2019-05-30 18:00:00 29.1 9 Este 23 Sudeste 0 -- -- 23
2019-05-30 17:00:00 29.1 8 Sudeste 22 Nordeste 0 -- -- 23
2019-05-30 16:00:00 28.2 9 Oeste 21 Oeste 0 -- -- 27
2019-05-30 15:00:00 27.1 8 Noroeste 24 Oeste 0 -- -- 29
2019-05-30 14:00:00 26 5 Oeste 16 Oeste 0 -- -- 31
2019-05-30 13:00:00 24.8 7 Sur 18 Sudeste 0 -- -- 31
2019-05-30 12:00:00 23.4 10 Sudeste 24 Sudeste 0 -- -- 35
2019-05-30 11:00:00 21.9 10 Sudeste 30 Sudeste 0 -- -- 38
2019-05-30 10:00:00 19.2 10 Este 27 Este 0 -- -- 43
2019-05-30 09:00:00 16 8 Sudeste 18 Sudeste 0 -- -- 53
2019-05-30 08:00:00 13 5 Sudeste 15 Sudeste 0 -- -- 65
2019-05-30 07:00:00 13.2 4 Sudeste 14 Sudeste 0 -- -- 66
2019-05-30 06:00:00 14.5 3 Sudeste 17 Este 0 -- -- 61
2019-05-30 05:00:00 14.4 5 Sudeste 13 Sur 0 -- -- 61
2019-05-30 04:00:00 14.5 3 Sudoeste 15 Sudeste 0 -- -- 61
2019-05-30 03:00:00 15 2 Sudoeste 13 Nordeste 0 -- -- 56
2019-05-30 02:00:00 16.2 4 Sudeste 14 Sudeste 0 -- -- 51
2019-05-30 01:00:00 17.3 5 Sudeste 12 Sudeste 0 -- -- 36
2019-05-30 00:00:00 18.6 5 Este 13 Nordeste 0 -- -- 32
2019-05-29 23:00:00 19.6 2 Nordeste 7 Sudeste 0 -- -- 30
2019-05-29 22:00:00 21.5 0 Calma 18 Norte 0 -- -- 28
2019-05-29 21:00:00 25.2 7 Norte 22 Norte 0 -- -- 25
2019-05-29 20:00:00 26.8 8 Norte 23 Norte 0 -- -- 23
2019-05-29 19:00:00 27.9 10 Norte 31 Norte 0 -- -- 24
2019-05-29 18:00:00 27.4 17 Noroeste 31 Noroeste 0 -- -- 25
2019-05-29 17:00:00 27.8 16 Noroeste 32 Noroeste 0 -- -- 25
2019-05-29 16:00:00 27.8 13 Noroeste 28 Norte 0 -- -- 26
2019-05-29 15:00:00 27.3 12 Noroeste 21 Oeste 0 -- -- 28
2019-05-29 14:00:00 26.9 10 Noroeste 21 Noroeste 0 -- -- 28
2019-05-29 13:00:00 25.4 8 Oeste 19 Noroeste 0 -- -- 30
2019-05-29 12:00:00 23.8 5 Norte 12 Oeste 0 -- -- 32
2019-05-29 11:00:00 22 5 Oeste 11 Noroeste 0 -- -- 34
2019-05-29 10:00:00 18.7 3 Oeste 8 Oeste 0 -- -- 44
2019-05-29 09:00:00 15.7 0 Calma 4 Este 0 -- -- 52
2019-05-29 08:00:00 14.2 3 Este 5 Este 0 -- -- 54
2019-05-29 07:00:00 14.3 0 Calma 7 Este 0 -- -- 52
2019-05-29 06:00:00 15.1 0 Calma 8 Sudeste 0 -- -- 50
2019-05-29 05:00:00 15.9 5 Sudeste 8 Sudeste 0 -- -- 49
2019-05-29 04:00:00 16.9 3 Sudeste 9 Sudeste 0 -- -- 47
2019-05-29 03:00:00 17.6 3 Sudeste 10 Sudeste 0 -- -- 46
2019-05-29 02:00:00 18.8 5 Sudeste 8 Este 0 -- -- 45
2019-05-29 01:00:00 19.6 4 Sudeste 11 Oeste 0 -- -- 45
2019-05-29 00:00:00 19.9 6 Sudoeste 15 Sudoeste 0 -- -- 44
2019-05-28 23:00:00 22.2 3 Nordeste 6 Nordeste 0 -- -- 40
2019-05-28 22:00:00 23.5 2 Este 10 Noroeste 0 -- -- 37
2019-05-28 21:00:00 27.5 6 Noroeste 20 Noroeste 0 -- -- 30
2019-05-28 20:00:00 29.3 8 Noroeste 23 Noroeste 0 -- -- 27
2019-05-28 19:00:00 29.7 9 Noroeste 24 Norte 0 -- -- 28
2019-05-28 18:00:00 29.5 13 Oeste 27 Noroeste 0 -- -- 30
2019-05-28 17:00:00 29.8 11 Noroeste 27 Oeste 0 -- -- 28
2019-05-28 16:00:00 29.6 13 Oeste 30 Oeste 0 -- -- 28
2019-05-28 15:00:00 28.5 8 Noroeste 24 Noroeste 0 -- -- 29
2019-05-28 14:00:00 27.9 7 Norte 20 Oeste 0 -- -- 32
2019-05-28 13:00:00 27.3 9 Noroeste 24 Noroeste 0 -- -- 32
2019-05-28 12:00:00 26.3 10 Noroeste 19 Norte 0 -- -- 38
2019-05-28 11:00:00 24.6 3 Oeste 9 Este 0 -- -- 40
2019-05-28 10:00:00 21.2 3 Sur 9 Sur 0 -- -- 51
2019-05-28 09:00:00 17.7 3 Sudoeste 12 Sudeste 0 -- -- 55
2019-05-28 08:00:00 16.2 5 Sudeste 14 Sudeste 0 -- -- 58
2019-05-28 07:00:00 15.2 0 Calma 9 Sudeste 0 -- -- 60
2019-05-28 06:00:00 16.4 6 Sudeste 11 Sudeste 0 -- -- 54
2019-05-28 05:00:00 16.8 5 Sudeste 8 Sudeste 0 -- -- 53
2019-05-28 04:00:00 17.4 2 Sudeste 9 Noroeste 0 -- -- 51
2019-05-28 03:00:00 18.5 4 Nordeste 17 Oeste 0 -- -- 47
2019-05-28 02:00:00 20.4 6 Noroeste 19 Oeste 0 -- -- 41
2019-05-28 01:00:00 21.2 2 Noroeste 17 Oeste 0 -- -- 43
2019-05-28 00:00:00 22.1 0 Calma 10 Oeste 0 -- -- 41
2019-05-27 23:00:00 22.4 2 Noroeste 6 Sudeste 0 -- -- 40
2019-05-27 22:00:00 23.3 0 Calma 15 Oeste 0 -- -- 35
2019-05-27 21:00:00 25.2 6 Oeste 22 Noroeste 0 -- -- 32
2019-05-27 20:00:00 27.9 10 Oeste 21 Oeste 0 -- -- 29
2019-05-27 19:00:00 27.5 11 Noroeste 23 Norte 0 -- -- 29
2019-05-27 18:00:00 27.9 13 Noroeste 26 Noroeste 0 -- -- 28
2019-05-27 17:00:00 28.4 14 Noroeste 26 Noroeste 0 -- -- 27
2019-05-27 16:00:00 27.8 9 Noroeste 27 Noroeste 0 -- -- 29
2019-05-27 15:00:00 27 8 Noroeste 22 Oeste 0 -- -- 29
2019-05-27 14:00:00 26.4 10 Noroeste 23 Noroeste 0 -- -- 32
2019-05-27 13:00:00 25.4 13 Noroeste 22 Oeste 0 -- -- 31
2019-05-27 12:00:00 24.2 8 Norte 16 Norte 0 -- -- 32
2019-05-27 11:00:00 21.9 5 Noroeste 11 Noroeste 0 -- -- 36
2019-05-27 10:00:00 19 3 Oeste 13 Sudeste 0 -- -- 41
2019-05-27 09:00:00 16 7 Sudeste 13 Sudeste 0 -- -- 47
2019-05-27 08:00:00 13.7 8 Sudeste 14 Sudeste 0 -- -- 49
2019-05-27 07:00:00 12.3 3 Este 8 Este 0 -- -- 51
2019-05-27 06:00:00 12.4 0 Calma 2 Oeste 0 -- -- 52
2019-05-27 05:00:00 13.3 0 Calma 7 Nordeste 0 -- -- 46
2019-05-27 04:00:00 13.3 0 Calma 7 Sudeste 0 -- -- 47
2019-05-27 03:00:00 15.7 6 Sudeste 13 Este 0 -- -- 37
2019-05-27 02:00:00 16.4 7 Sudeste 14 Sudeste 0 -- -- 36
2019-05-27 01:00:00 15.8 4 Sudeste 8 Sudeste 0 -- -- 38
2019-05-27 00:00:00 16.4 3 Sudeste 6 Sudeste 0 -- -- 37
2019-05-26 23:00:00 17.5 0 Calma 6 Sudeste 0 -- -- 34
2019-05-26 22:00:00 19.8 0 Calma 12 Norte 0 -- -- 31
2019-05-26 21:00:00 23.7 7 Norte 25 Noroeste 0 -- -- 24
2019-05-26 20:00:00 24.8 11 Noroeste 28 Oeste 0 -- -- 23
2019-05-26 19:00:00 25.1 13 Noroeste 27 Noroeste 0 -- -- 30
2019-05-26 18:00:00 25 17 Noroeste 31 Oeste 0 -- -- 31
2019-05-26 17:00:00 25.1 14 Noroeste 28 Oeste 0 -- -- 33
2019-05-26 16:00:00 24.5 10 Noroeste 27 Norte 0 -- -- 35
2019-05-26 15:00:00 23.9 12 Noroeste 26 Noroeste 0 -- -- 38
2019-05-26 14:00:00 23.4 13 Noroeste 24 Oeste 0 -- -- 39
2019-05-26 13:00:00 22.3 8 Noroeste 22 Oeste 0 -- -- 40
2019-05-26 12:00:00 21.1 8 Oeste 14 Noroeste 0 -- -- 47
2019-05-26 11:00:00 18.6 7 Noroeste 15 Noroeste 0 -- -- 51
2019-05-26 10:00:00 15.8 3 Sur 14 Nordeste 0 -- -- 62
2019-05-26 09:00:00 14.3 5 Sudeste 12 Sudeste 0 -- -- 68
2019-05-26 08:00:00 11.5 6 Sudeste 14 Sudeste 0 -- -- 73
2019-05-26 07:00:00 11 4 Sudeste 7 Sudeste 0 -- -- 76
2019-05-26 06:00:00 11.9 2 Este 10 Sudeste 0 -- -- 70
2019-05-26 05:00:00 12 5 Sudeste 12 Este 0 -- -- 71
2019-05-26 04:00:00 12.8 6 Sudeste 12 Sudeste 0 -- -- 66
2019-05-26 03:00:00 13.5 9 Sudeste 14 Sudeste 0 -- -- 64
2019-05-26 02:00:00 14.6 6 Sudeste 13 Este 0 -- -- 61
2019-05-26 01:00:00 15 8 Sudeste 14 Sudeste 0 -- -- 59
2019-05-26 00:00:00 16.3 6 Sudeste 13 Sudeste 0 -- -- 49
2019-05-25 23:00:00 16.8 2 Norte 6 Norte 0 -- -- 47
2019-05-25 22:00:00 18.6 2 Nordeste 11 Noroeste 0 -- -- 43
2019-05-25 21:00:00 22 8 Noroeste 22 Norte 0 -- -- 35
2019-05-25 20:00:00 22.8 13 Noroeste 26 Oeste 0 -- -- 35
2019-05-25 19:00:00 23.2 15 Noroeste 29 Noroeste 0 -- -- 36
2019-05-25 18:00:00 23.6 18 Noroeste 31 Noroeste 0 -- -- 35
2019-05-25 17:00:00 24 15 Noroeste 29 Norte 0 -- -- 36
2019-05-25 16:00:00 24.2 11 Norte 30 Noroeste 0 -- -- 35
2019-05-25 15:00:00 22.7 17 Noroeste 32 Noroeste 0 -- -- 39
2019-05-25 14:00:00 21.9 14 Noroeste 28 Norte 0 -- -- 38
2019-05-25 13:00:00 20.6 16 Noroeste 28 Oeste 0 -- -- 42
2019-05-25 12:00:00 19.3 12 Noroeste 23 Noroeste 0 -- -- 44
2019-05-25 11:00:00 18.3 7 Noroeste 21 Noroeste 0 -- -- 43
2019-05-25 10:00:00 15.5 6 Noroeste 14 Noroeste 0 -- -- 61
2019-05-25 09:00:00 12.2 0 Calma 5 Noroeste 0 -- -- 74
2019-05-25 08:00:00 10.7 2 Este 6 Este 0 -- -- 78
2019-05-25 07:00:00 10.7 2 Sudeste 7 Sudeste 0 -- -- 77
2019-05-25 06:00:00 11.6 4 Sudeste 11 Este 0 -- -- 75
2019-05-25 05:00:00 12 6 Sudeste 11 Sudeste 0 -- -- 76
2019-05-25 04:00:00 13.1 5 Sudeste 12 Sudeste 0 -- -- 74
2019-05-25 03:00:00 14.2 4 Sudeste 12 Este 0 -- -- 71
2019-05-25 02:00:00 15.2 3 Sur 10 Este 0 -- -- 63
2019-05-25 01:00:00 17.1 6 Este 11 Este 0 -- -- 54
2019-05-25 00:00:00 18.9 7 Norte 30 Nordeste 0 -- -- 49
2019-05-24 23:00:00 19.8 9 Nordeste 23 Nordeste 0 -- -- 48
2019-05-24 22:00:00 19.8 0 Calma 9 Noroeste 0 -- -- 43
2019-05-24 21:00:00 22.6 5 Noroeste 23 Noroeste 0 -- -- 35
2019-05-24 20:00:00 24 11 Noroeste 22 Noroeste 0 -- -- 32
2019-05-24 19:00:00 24.3 13 Noroeste 27 Noroeste 0 -- -- 30
2019-05-24 18:00:00 23.8 12 Noroeste 26 Noroeste 0 -- -- 34
2019-05-24 17:00:00 24.1 9 Noroeste 24 Noroeste 0 -- -- 31
2019-05-24 16:00:00 23.6 12 Oeste 24 Norte 0 -- -- 36
2019-05-24 15:00:00 23.7 10 Oeste 24 Noroeste 0 -- -- 36
2019-05-24 14:00:00 23.6 12 Noroeste 27 Noroeste 0 -- -- 37
2019-05-24 13:00:00 22.8 6 Oeste 24 Sudoeste 0 -- -- 36
2019-05-24 12:00:00 21.5 9 Oeste 21 Oeste 0 -- -- 38
2019-05-24 11:00:00 18.6 3 Este 10 Este 0 -- -- 50
2019-05-24 10:00:00 16.3 5 Sudeste 12 Sudeste 0 -- -- 60
2019-05-24 09:00:00 14.9 6 Sudeste 12 Sudeste 0 -- -- 62
2019-05-24 08:00:00 14.2 3 Sudeste 9 Sudeste 0 -- -- 63
2019-05-24 07:00:00 13.8 4 Sudeste 9 Sudeste 0 -- -- 62
2019-05-24 06:00:00 14.5 5 Sudeste 9 Este 0 -- -- 58
2019-05-24 05:00:00 15.1 4 Sudeste 7 Este 0 -- -- 55
2019-05-24 04:00:00 15.9 5 Sudeste 7 Este 0 -- -- 53
2019-05-24 03:00:00 15.9 3 Sudeste 6 Nordeste 0 -- -- 52
2019-05-24 02:00:00 17.5 2 Sudeste 8 Noroeste 0 -- -- 47
2019-05-24 01:00:00 18 2 Norte 9 Noroeste 0 -- -- 43
2019-05-24 00:00:00 18.6 0 Calma 7 Nordeste 0 -- -- 43
2019-05-23 23:00:00 20.1 3 Sur 8 Noroeste 0 -- -- 40
2019-05-23 22:00:00 21.4 2 Noroeste 17 Norte 0 -- -- 38
2019-05-23 21:00:00 23.3 11 Noroeste 22 Noroeste 0 -- -- 33
2019-05-23 20:00:00 25.2 11 Noroeste 28 Noroeste 0 -- -- 31
2019-05-23 19:00:00 26.9 11 Noroeste 24 Oeste 0 -- -- 29
2019-05-23 18:00:00 27.6 9 Noroeste 25 Oeste 0 -- -- 30
2019-05-23 17:00:00 27.6 13 Oeste 28 Sudoeste 0 -- -- 29
2019-05-23 16:00:00 27.2 7 Oeste 26 Noroeste 0 -- -- 29
2019-05-23 15:00:00 26.4 6 Sudoeste 23 Sudoeste 0 -- -- 32
2019-05-23 14:00:00 26 6 Sur 18 Sudeste 0 -- -- 28
2019-05-23 13:00:00 24.9 6 Sudeste 17 Sudeste 0 -- -- 34
2019-05-23 12:00:00 23.2 4 Sudoeste 13 Sur 0 -- -- 40
2019-05-23 11:00:00 21.3 4 Oeste 9 Noroeste 0 -- -- 43
2019-05-23 10:00:00 17.9 2 Oeste 7 Oeste 0 -- -- 52
2019-05-23 09:00:00 14.6 3 Sudeste 4 Sudeste 0 -- -- 63
2019-05-23 08:00:00 12.2 0 Calma 4 Sudeste 0 -- -- 68
2019-05-23 07:00:00 12.7 5 Sudeste 9 Sudeste 0 -- -- 64
2019-05-23 06:00:00 13.8 5 Sudeste 9 Sudeste 0 -- -- 59
2019-05-23 05:00:00 14.4 5 Sudeste 9 Sudeste 0 -- -- 57
2019-05-23 04:00:00 15 5 Sudeste 9 Sudeste 0 -- -- 54
2019-05-23 03:00:00 14.5 3 Este 6 Sudeste 0 -- -- 57
2019-05-23 02:00:00 16.1 6 Sudeste 10 Sudeste 0 -- -- 53
2019-05-23 01:00:00 16.6 5 Sudeste 9 Sudeste 0 -- -- 52
2019-05-23 00:00:00 17.5 5 Sudeste 10 Sudeste 0 -- -- 50
2019-05-22 23:00:00 18.7 0 Calma 8 Sur 0 -- -- 49
2019-05-22 22:00:00 21.3 4 Sur 13 Este 0 -- -- 44
2019-05-22 21:00:00 22.8 3 Sudeste 17 Este 0 -- -- 40
2019-05-22 20:00:00 25.3 5 Oeste 14 Oeste 0 -- -- 33
2019-05-22 19:00:00 24.5 5 Noroeste 14 Norte 0 -- -- 33
2019-05-22 18:00:00 25.1 8 Noroeste 19 Noroeste 0 -- -- 35
2019-05-22 17:00:00 26.5 9 Noroeste 19 Noroeste 0 -- -- 33
2019-05-22 16:00:00 24.5 8 Noroeste 17 Noroeste 0 -- -- 35
2019-05-22 15:00:00 24.9 6 Oeste 36 Oeste 0 -- -- 32
2019-05-22 14:00:00 25 6 Noroeste 17 Sudoeste 0 -- -- 32
2019-05-22 13:00:00 23.3 7 Oeste 18 Oeste 0 -- -- 34
2019-05-22 12:00:00 22.5 5 Sudeste 15 Este 0 -- -- 38
2019-05-22 11:00:00 19.7 5 Sudeste 14 Sudeste 0 -- -- 51
2019-05-22 10:00:00 16.4 7 Sudeste 14 Sudeste 0 -- -- 59
2019-05-22 09:00:00 13.2 6 Sudeste 11 Sudeste 0 -- -- 66
2019-05-22 08:00:00 10.7 0 Calma 14 Sudeste 0 -- -- 73
2019-05-22 07:00:00 11.4 7 Sudeste 12 Sudeste 0 -- -- 67
2019-05-22 06:00:00 11.7 8 Sudeste 13 Sudeste 0 -- -- 67
2019-05-22 05:00:00 11.3 0 Calma 5 Sudeste 0 -- -- 71
2019-05-22 04:00:00 12 0 Calma 3 Este 0 -- -- 70
2019-05-22 03:00:00 12.4 0 Calma 4 Sudeste 0 -- -- 67
2019-05-22 02:00:00 13.1 0 Calma 8 Este 0 -- -- 61
2019-05-22 01:00:00 14.1 0 Calma 6 Sudeste 0 -- -- 56
2019-05-22 00:00:00 15.3 0 Calma 5 Nordeste 0 -- -- 50